Time;durP1;ratioP1;P1;durP2;ratioP2;P2;SDS_P1;SDS_P2;PMS_P1;PMS_P2;Temp;Humidity;BMP_temperature;BMP_pressure;BME280_temperature;BME280_humidity;BME280_pressure;Samples;Min_cycle;Max_cycle;Signal;HPM_P1;HPM_P2
2023/07/20 00:02:07;;;;;;;;;;;13.30;99.90;;;12.10;100.00;100661.63;4985174;28;20505;-75
2023/07/20 00:04:33;;;;;;;7.97;1.90;;;13.20;99.90;;;12.07;100.00;100658.28;4973960;28;20277;-73
2023/07/20 00:07:00;;;;;;;6.05;2.25;;;13.20;99.90;;;12.03;100.00;100656.75;4983998;28;20088;-75
2023/07/20 00:09:27;;;;;;;12.30;2.90;;;13.20;99.90;;;12.05;100.00;100654.88;4992246;28;20057;-74
2023/07/20 00:11:53;;;;;;;7.00;2.72;;;13.20;99.90;;;12.06;100.00;100649.53;4953739;28;20049;-75
2023/07/20 00:14:21;;;;;;;4.28;2.33;;;13.20;99.90;;;12.10;100.00;100650.22;4971190;28;20449;-75
2023/07/20 00:16:55;;;;;;;10.93;2.60;;;13.20;99.90;;;12.13;100.00;100652.69;4984145;28;20038;-74
2023/07/20 00:19:28;;;;;;;10.48;3.22;;;13.20;99.90;;;12.16;100.00;100652.53;4982974;28;20073;-75
2023/07/20 00:21:54;;;;;;;10.50;2.78;;;13.20;99.90;;;12.19;100.00;100659.44;4959787;28;20038;-74
2023/07/20 00:24:20;;;;;;;4.75;2.92;;;13.30;99.90;;;12.22;100.00;100656.63;4966502;28;20049;-75
2023/07/20 00:26:46;;;;;;;13.65;3.28;;;13.30;99.90;;;12.23;100.00;100642.50;4986063;28;20089;-75
2023/07/20 00:29:12;;;;;;;10.80;3.42;;;13.30;99.90;;;12.25;100.00;100652.03;4983468;28;20104;-74
2023/07/20 00:31:38;;;;;;;9.02;3.67;;;13.30;99.90;;;12.27;100.00;100642.25;4978777;28;20037;-75
2023/07/20 00:34:04;;;;;;;7.57;3.03;;;13.30;99.90;;;12.30;100.00;100654.41;4992708;28;20470;-74
2023/07/20 00:36:30;;;;;;;6.60;3.17;;;13.40;99.90;;;12.31;100.00;100650.84;4961379;28;20036;-76
2023/07/20 00:38:56;;;;;;;14.55;3.40;;;13.40;99.90;;;12.34;100.00;100655.94;4992508;28;20026;-75
2023/07/20 00:41:22;;;;;;;22.80;3.60;;;13.40;99.90;;;12.35;100.00;100664.72;4985466;28;20575;-76
2023/07/20 00:43:48;;;;;;;10.57;3.60;;;13.40;99.90;;;12.35;100.00;100660.28;4975289;28;20034;-76
2023/07/20 00:46:14;;;;;;;18.92;3.95;;;13.40;99.90;;;12.36;100.00;100658.53;4956818;28;20084;-76
2023/07/20 00:48:42;;;;;;;11.27;3.67;;;13.40;99.90;;;12.35;100.00;100662.91;4973872;28;20086;-76
2023/07/20 00:51:08;;;;;;;11.30;3.45;;;13.40;99.90;;;12.36;100.00;100669.94;4992149;28;20412;-74
2023/07/20 00:53:34;;;;;;;11.07;3.70;;;13.40;99.90;;;12.35;100.00;100662.06;4971434;28;20034;-76
2023/07/20 00:56:00;;;;;;;11.27;3.63;;;13.40;99.90;;;12.33;100.00;100659.50;4973352;28;20539;-75
2023/07/20 00:58:26;;;;;;;11.57;3.40;;;13.40;99.90;;;12.33;100.00;100667.44;4993313;28;22293;-75
2023/07/20 01:00:52;;;;;;;9.63;3.28;;;13.40;99.90;;;12.33;100.00;100662.16;4981452;28;20427;-75
2023/07/20 01:03:17;;;;;;;8.50;3.40;;;13.40;99.90;;;12.34;100.00;100663.88;4972936;28;20044;-75
2023/07/20 01:06:22;;;;;;;8.85;3.33;;;13.40;99.90;;;12.37;100.00;100662.84;4975175;28;20561;-74
2023/07/20 01:09:05;;;;;;;9.25;3.58;;;13.40;99.90;;;12.39;100.00;100656.53;5003105;28;20109;-75
2023/07/20 01:12:07;;;;;;;10.73;3.65;;;13.40;99.90;;;12.41;100.00;100659.94;4994077;28;20048;-75
2023/07/20 01:14:34;;;;;;;8.05;3.70;;;13.50;99.90;;;12.42;100.00;100659.03;4965890;28;20037;-75
2023/07/20 01:17:00;;;;;;;17.17;3.97;;;13.50;99.90;;;12.47;100.00;100666.69;4960615;28;20080;-74
2023/07/20 01:19:25;;;;;;;12.25;4.15;;;13.50;99.90;;;12.52;100.00;100668.13;4989470;28;20393;-75
2023/07/20 01:22:46;;;;;;;17.17;4.30;;;13.60;99.90;;;12.56;100.00;100665.31;4985572;28;20042;-75
2023/07/20 01:26:02;;;;;;;8.07;4.05;;;13.60;99.90;;;12.61;100.00;100673.84;4892194;29;20048;-75
2023/07/20 01:29:05;;;;;;;12.32;4.45;;;13.60;99.90;;;12.64;100.00;100677.16;4893439;29;20440;-74
2023/07/20 01:31:33;;;;;;;12.25;4.15;;;13.70;99.90;;;12.66;100.00;100675.28;4892517;29;20071;-75
2023/07/20 01:34:04;;;;;;;15.45;5.10;;;13.70;99.90;;;12.68;100.00;100673.41;4883632;29;20666;-75
2023/07/20 01:36:35;;;;;;;17.33;4.28;;;13.50;99.90;;;12.72;100.00;100667.03;4872685;29;20045;-74
2023/07/20 01:39:02;;;;;;;21.55;4.05;;;13.70;99.90;;;12.73;100.00;100668.72;4895810;29;20051;-75
2023/07/20 01:41:28;;;;;;;15.48;5.30;;;13.80;99.90;;;12.76;100.00;100662.41;4884413;29;20036;-76
2023/07/20 01:43:59;;;;;;;10.75;3.80;;;13.80;99.90;;;12.77;100.00;100658.00;4882036;29;20036;-75
2023/07/20 01:46:24;;;;;;;19.70;4.60;;;13.80;99.90;;;12.78;100.00;100665.81;4881233;29;20055;-75
2023/07/20 01:48:50;;;;;;;17.23;4.75;;;13.80;99.90;;;12.79;100.00;100670.16;4980818;23;20040;-75
2023/07/20 01:51:17;;;;;;;;;;;13.80;99.90;;;12.76;100.00;100665.03;5010557;28;20038;-75
2023/07/20 01:53:43;;;;;;;;;;;13.80;99.90;;;12.72;100.00;100667.03;4997607;28;20335;-75
2023/07/20 01:56:09;;;;;;;20.63;4.90;;;13.70;99.90;;;12.69;100.00;100668.97;5012215;28;19921;-75
2023/07/20 01:58:35;;;;;;;27.67;5.25;;;13.70;99.90;;;12.68;100.00;100669.94;5005651;28;20125;-75
2023/07/20 02:01:01;;;;;;;17.88;4.88;;;13.70;99.90;;;12.63;100.00;100671.97;4985488;28;20072;-74
2023/07/20 02:03:27;;;;;;;18.02;4.88;;;13.70;99.90;;;12.60;100.00;100666.88;4991491;28;20042;-75
2023/07/20 02:05:53;;;;;;;16.33;4.80;;;13.70;99.90;;;12.60;100.00;100674.78;4983272;28;20414;-75
2023/07/20 02:08:19;;;;;;;15.15;5.07;;;13.70;99.90;;;12.59;100.00;100663.38;4984537;28;20053;-75
2023/07/20 02:10:48;;;;;;;;;;;13.60;99.90;;;12.54;100.00;100661.91;5009417;28;20030;-74
2023/07/20 02:13:15;;;;;;;13.52;4.88;;;13.60;99.90;;;12.49;100.00;100660.38;4999065;28;20293;-76
2023/07/20 02:15:42;;;;;;;14.45;5.07;;;13.60;99.90;;;12.49;100.00;100668.31;4992948;28;20041;-75
2023/07/20 02:18:09;;;;;;;13.00;5.50;;;13.50;99.90;;;12.50;100.00;100670.03;4994712;28;20137;-76
2023/07/20 02:20:35;;;;;;;19.05;5.40;;;13.50;99.90;;;12.51;100.00;100666.44;4985897;28;20088;-74
2023/07/20 02:23:01;;;;;;;18.40;5.68;;;13.60;99.90;;;12.51;100.00;100671.72;4986295;28;20036;-76
2023/07/20 02:25:27;;;;;;;15.85;5.90;;;13.60;99.90;;;12.51;100.00;100684.06;4986132;28;20049;-76
2023/07/20 02:27:53;;;;;;;19.42;6.28;;;13.50;99.90;;;12.50;100.00;100682.34;4983828;28;20066;-75
2023/07/20 02:30:18;;;;;;;;;;;13.60;99.90;;;12.46;100.00;100679.06;4994270;28;20049;-76
2023/07/20 02:32:45;;;;;;;23.63;6.00;;;13.50;99.90;;;12.48;100.00;100678.94;4973481;28;19916;-75
2023/07/20 02:35:11;;;;;;;25.23;5.70;;;13.50;99.90;;;12.51;100.00;100684.06;4994944;28;20037;-75
2023/07/20 02:37:37;;;;;;;27.58;6.53;;;13.60;99.90;;;12.54;100.00;100675.13;4974879;28;20035;-76
2023/07/20 02:40:04;;;;;;;20.23;5.70;;;13.60;99.90;;;12.55;100.00;100671.53;5001592;28;20046;-75
2023/07/20 02:42:30;;;;;;;22.35;5.90;;;13.60;99.90;;;12.54;100.00;100673.31;5012743;28;20054;-76
2023/07/20 02:44:58;;;;;;;23.13;5.78;;;13.60;99.90;;;12.53;100.00;100666.34;4993080;28;20083;-75
2023/07/20 02:47:26;;;;;;;13.73;4.90;;;13.60;99.90;;;12.49;100.00;100672.75;4992553;28;20084;-74
2023/07/20 02:49:52;;;;;;;22.60;6.38;;;13.50;99.90;;;12.47;100.00;100675.47;5009096;28;20112;-75
2023/07/20 02:52:18;;;;;;;18.55;5.70;;;13.50;99.90;;;12.45;100.00;100666.78;4991542;28;20034;-75
2023/07/20 02:54:43;;;;;;;;;;;13.50;99.90;;;12.42;100.00;100664.31;4997438;28;20116;-75
2023/07/20 02:57:09;;;;;;;21.15;4.63;;;13.50;99.90;;;12.41;100.00;100667.88;5004396;28;19917;-77
2023/07/20 02:59:35;;;;;;;19.48;6.35;;;13.50;99.90;;;12.41;100.00;100675.78;5001010;28;20121;-75
2023/07/20 03:02:00;;;;;;;;;;;13.50;99.90;;;12.34;100.00;100676.22;4992745;28;20045;-76
2023/07/20 03:04:27;;;;;;;18.38;5.93;;;13.40;99.90;;;12.34;100.00;100670.94;5008882;28;19955;-75
2023/07/20 03:06:53;;;;;;;13.48;5.75;;;13.40;99.90;;;12.36;100.00;100669.06;4993735;28;20065;-75
2023/07/20 03:09:19;;;;;;;29.25;6.57;;;13.40;99.90;;;12.38;100.00;100670.69;5012382;28;20030;-75
2023/07/20 03:11:45;;;;;;;19.50;7.55;;;13.40;99.90;;;12.40;100.00;100670.63;5010319;28;20044;-75
2023/07/20 03:14:11;;;;;;;;;;;13.40;99.90;;;12.38;100.00;100672.50;4982639;28;20034;-75
2023/07/20 03:16:37;;;;;;;12.88;6.63;;;13.40;99.90;;;12.38;100.00;100672.50;4998373;28;19914;-75
2023/07/20 03:19:03;;;;;;;19.77;7.13;;;13.40;99.90;;;12.40;100.00;100673.25;4993436;28;20045;-75
2023/07/20 03:21:29;;;;;;;20.30;7.35;;;13.40;99.90;;;12.41;100.00;100670.50;4992628;28;20367;-75
2023/07/20 03:23:55;;;;;;;25.75;6.95;;;13.50;99.90;;;12.44;100.00;100674.75;4986124;28;20041;-75
2023/07/20 03:26:21;;;;;;;24.92;6.70;;;13.50;99.90;;;12.50;100.00;100671.78;5010639;28;22881;-75
2023/07/20 03:28:47;;;;;;;22.42;7.43;;;13.50;99.90;;;12.54;100.00;100668.03;4993699;28;20433;-75
2023/07/20 03:31:14;;;;;;;21.98;7.13;;;13.60;99.90;;;12.58;100.00;100658.16;4997797;28;20066;-75
2023/07/20 03:33:41;;;;;;;19.33;6.60;;;13.60;99.90;;;12.63;100.00;100671.97;4993089;28;20025;-75
2023/07/20 03:36:06;;;;;;;12.25;6.68;;;13.70;99.90;;;12.69;100.00;100667.19;4994096;28;20033;-75
2023/07/20 03:38:32;;;;;;;23.48;7.22;;;13.70;99.90;;;12.76;100.00;100666.84;5011705;28;20030;-76
2023/07/20 03:41:00;;;;;;;26.25;7.28;;;13.80;99.90;;;12.82;100.00;100662.06;4985444;28;20216;-75
2023/07/20 03:43:28;;;;;;;18.67;7.40;;;13.80;99.90;;;12.89;100.00;100673.13;4991671;28;20030;-75
2023/07/20 03:45:54;;;;;;;27.75;6.85;;;13.90;99.90;;;12.94;100.00;100663.16;4992616;28;20037;-75
2023/07/20 03:48:23;;;;;;;35.10;7.00;;;13.90;99.90;;;12.95;100.00;100661.38;4993127;28;20068;-75
2023/07/20 03:50:51;;;;;;;23.40;6.07;;;13.90;99.90;;;12.97;100.00;100665.63;4991526;28;20685;-75
2023/07/20 03:53:17;;;;;;;23.13;6.65;;;13.90;99.90;;;13.02;100.00;100658.25;4990280;28;20560;-75
2023/07/20 03:56:06;;;;;;;19.52;6.85;;;14.00;99.90;;;13.11;100.00;100656.91;5008252;28;20042;-76
2023/07/20 03:58:32;;;;;;;14.90;5.60;;;14.10;99.90;;;13.20;100.00;100659.00;4976180;28;20037;-79
2023/07/20 04:00:58;;;;;;;20.85;6.45;;;14.70;99.90;;;13.94;100.00;100660.75;4996075;28;20102;-75
2023/07/20 04:03:26;;;;;;;14.93;4.88;;;16.30;99.90;;;15.78;100.00;100682.38;4986047;28;20113;-75
2023/07/20 04:05:55;;;;;;;16.20;5.25;;;17.90;99.90;;;17.72;91.95;100689.56;4990966;28;20037;-75
2023/07/20 04:08:24;;;;;;;13.02;4.28;;;19.50;99.90;;;19.62;80.34;100701.84;4978901;28;20405;-77
2023/07/20 04:10:49;;;;;;;17.33;3.95;;;21.10;99.90;;;21.33;72.13;100702.84;4978107;28;20393;-75
2023/07/20 04:13:15;;;;;;;15.20;4.03;;;22.50;99.90;;;22.83;66.77;100701.06;4992183;28;20044;-77
2023/07/20 04:15:42;;;;;;;9.82;3.90;;;23.80;99.90;;;24.11;62.19;100707.84;5003211;28;20105;-75
2023/07/20 04:18:08;;;;;;;15.00;3.67;;;24.80;99.90;;;25.07;59.01;100712.91;4991529;28;20064;-75
2023/07/20 04:20:34;;;;;;;11.27;3.47;;;25.70;99.90;;;25.97;56.92;100723.72;5004103;28;20041;-77
2023/07/20 04:23:00;;;;;;;;;;;25.70;99.90;;;27.24;54.83;100736.34;4977663;28;20124;-76
2023/07/20 04:25:26;;;;;;;9.48;3.28;;;27.10;99.90;;;27.61;52.77;100741.75;4981151;28;19928;-77
2023/07/20 04:27:51;;;;;;;10.80;3.92;;;27.70;99.90;;;28.36;51.09;100758.97;4985281;28;20087;-76
2023/07/20 04:30:22;;;;;;;9.68;3.25;;;28.30;99.90;;;28.66;49.60;100755.41;5010122;28;20034;-75
2023/07/20 04:32:48;;;;;;;10.18;3.50;;;27.30;99.90;;;26.68;52.37;100733.78;4997495;28;20041;-76
2023/07/20 04:35:49;;;;;;;10.27;3.53;;;26.30;99.90;;;24.68;55.18;100712.66;4975340;28;20433;-76
2023/07/20 04:38:17;;;;;;;9.18;3.75;;;25.00;99.90;;;24.31;57.03;100722.75;5000835;28;20045;-75
2023/07/20 04:40:48;;;;;;;10.27;3.60;;;24.90;99.90;;;24.41;56.34;100722.63;5001856;28;20036;-76
2023/07/20 04:43:15;;;;;;;11.25;3.70;;;24.10;99.90;;;22.92;59.09;100719.81;5014047;28;20108;-75
2023/07/20 04:45:41;;;;;;;9.30;4.20;;;23.10;99.90;;;21.73;62.23;100723.25;5013289;28;20465;-76
2023/07/20 04:48:14;;;;;;;10.68;4.13;;;22.10;99.90;;;20.41;65.27;100717.28;4985446;28;20042;-77
2023/07/20 04:50:45;;;;;;;9.77;4.10;;;21.10;99.90;;;19.36;68.36;100717.38;4986527;28;20049;-75
2023/07/20 04:53:12;;;;;;;8.27;4.20;;;20.10;99.90;;;18.08;71.74;100710.81;5009960;28;20063;-76
2023/07/20 04:55:39;;;;;;;9.13;3.83;;;19.20;99.90;;;17.09;75.77;100712.09;4987895;28;20076;-77
2023/07/20 04:58:06;;;;;;;14.60;5.00;;;18.30;99.90;;;16.14;80.15;100696.72;4997159;28;20042;-81
2023/07/20 05:00:38;;;;;;;17.52;5.82;;;17.60;99.90;;;15.63;84.05;100711.75;4917983;28;21804;-80
2023/07/20 05:03:05;;;;;;;20.83;6.28;;;17.00;99.90;;;15.18;87.27;100706.75;4915168;28;20031;-79
2023/07/20 05:05:33;;;;;;;22.27;6.80;;;16.60;99.90;;;14.99;90.08;100707.16;4922583;28;20593;-78
2023/07/20 05:07:59;;;;;;;16.05;7.25;;;16.30;99.90;;;14.94;90.92;100701.28;4904741;28;20130;-78
2023/07/20 05:10:24;;;;;;;23.35;6.47;;;16.10;99.90;;;14.77;92.32;100716.50;4944165;28;20039;-77
2023/07/20 05:12:50;;;;;;;17.27;5.63;;;16.00;99.90;;;14.72;93.87;100712.44;4911172;28;20521;-77
2023/07/20 05:15:16;;;;;;;;;;;15.90;99.90;;;14.60;95.12;100714.06;4951047;28;20506;-78
2023/07/20 05:17:42;;;;;;;11.45;4.07;;;15.70;99.90;;;14.40;97.15;100707.31;4935757;28;21004;-77
2023/07/20 05:20:10;;;;;;;;;;;15.70;99.90;;;14.35;97.86;100701.47;4927465;28;20326;-76
2023/07/20 05:22:39;;;;;;;13.63;4.40;;;15.50;99.90;;;14.28;99.56;100700.19;4944895;28;19918;-77
2023/07/20 05:25:10;;;;;;;17.63;5.10;;;15.50;99.90;;;14.35;100.00;100704.97;4930387;28;20171;-77
2023/07/20 05:27:40;;;;;;;12.55;4.88;;;15.50;99.90;;;14.44;100.00;100708.84;4934051;28;20077;-78
2023/07/20 05:30:07;;;;;;;11.73;5.78;;;15.50;99.90;;;14.60;99.96;100708.78;4949469;28;20039;-77
2023/07/20 05:32:33;;;;;;;15.70;5.55;;;15.60;99.90;;;14.69;100.00;100718.78;4946061;28;20037;-77
2023/07/20 05:35:02;;;;;;;12.45;6.10;;;15.60;99.90;;;14.68;100.00;100709.13;4985532;28;20029;-76
2023/07/20 05:37:30;;;;;;;12.88;5.93;;;15.70;99.90;;;14.84;100.00;100716.06;4993705;28;20029;-77
2023/07/20 05:39:57;;;;;;;17.80;6.45;;;15.80;99.90;;;15.10;100.00;100717.91;4984968;28;20041;-78
2023/07/20 05:42:23;;;;;;;14.77;6.53;;;16.00;99.90;;;15.32;100.00;100716.47;4993588;28;20516;-77
2023/07/20 05:44:49;;;;;;;16.80;5.93;;;16.10;99.90;;;15.46;100.00;100713.72;4988136;28;20045;-76
2023/07/20 05:47:15;;;;;;;13.48;6.20;;;16.30;99.90;;;15.57;100.00;100710.34;4995422;28;20034;-78
2023/07/20 05:49:41;;;;;;;12.93;6.43;;;16.40;99.90;;;15.53;99.09;100708.88;4977272;28;20053;-77
2023/07/20 05:52:07;;;;;;;;;;;16.30;99.90;;;15.30;99.83;100705.97;4965213;28;20044;-77
2023/07/20 05:54:33;;;;;;;10.73;5.47;;;16.30;99.90;;;15.28;99.83;100704.38;4972825;28;19940;-77
2023/07/20 05:56:58;;;;;;;;;;;16.20;99.90;;;15.32;100.00;100709.38;4994140;28;20038;-76
2023/07/20 05:59:24;;;;;;;7.45;5.45;;;16.30;99.90;;;15.50;100.00;100714.38;4993188;28;20391;-77
2023/07/20 06:01:50;;;;;;;7.35;5.22;;;16.40;99.90;;;15.52;100.00;100717.78;4992470;28;20041;-77
2023/07/20 06:04:16;;;;;;;10.48;5.57;;;16.40;99.90;;;15.53;100.00;100720.34;4986469;28;20128;-77
2023/07/20 06:06:42;;;;;;;;;;;16.40;99.90;;;15.53;100.00;100717.69;4983248;28;20071;-77
2023/07/20 06:09:11;;;;;;;9.48;4.47;;;16.40;99.90;;;15.50;100.00;100717.03;5002081;28;20553;-77
2023/07/20 06:11:40;;;;;;;9.25;4.78;;;16.40;99.90;;;15.55;100.00;100712.25;5000313;28;20037;-76
2023/07/20 06:14:06;;;;;;;7.15;4.28;;;16.50;99.90;;;15.76;100.00;100712.66;4993200;28;20665;-77
2023/07/20 06:16:32;;;;;;;7.95;3.95;;;16.80;99.90;;;16.70;98.74;100727.31;4994178;28;20032;-76
2023/07/20 06:19:00;;;;;;;;;;;16.80;99.90;;;17.44;95.71;100738.72;4999531;28;20509;-77
2023/07/20 06:21:25;;;;;;;9.57;2.70;;;18.80;99.90;;;21.77;78.85;100755.00;4993033;28;19949;-76
2023/07/20 06:23:51;;;;;;;6.10;2.72;;;20.40;99.90;;;22.47;71.09;100742.09;5008659;28;20034;-77
2023/07/20 06:26:17;;;;;;;;;;;20.60;99.90;;;22.40;70.15;100742.84;4992560;28;20037;-77
2023/07/20 06:28:45;;;;;;;5.47;2.03;;;21.80;99.90;;;21.83;69.19;100742.84;4981696;28;20369;-77
2023/07/20 06:31:11;;;;;;;5.03;1.67;;;21.40;99.90;;;20.51;70.62;100730.72;4960335;28;20086;-76
2023/07/20 06:33:37;;;;;;;4.03;1.80;;;20.90;99.90;;;19.67;73.94;100735.19;4992046;28;20030;-76
2023/07/20 06:36:04;;;;;;;4.10;2.10;;;20.40;99.90;;;19.14;75.52;100723.66;4984161;28;20576;-77
2023/07/20 06:38:29;;;;;;;2.88;1.13;;;19.80;99.90;;;18.27;76.91;100721.72;4997039;28;20125;-77
2023/07/20 06:40:55;;;;;;;7.38;1.00;;;19.20;99.90;;;17.74;78.23;100726.72;4993026;28;20124;-77
2023/07/20 06:43:21;;;;;;;;;;;19.20;99.90;;;17.08;79.94;100718.38;4980861;28;20493;-76
2023/07/20 06:45:53;;;;;;;2.35;0.75;;;18.20;99.90;;;16.57;82.99;100724.72;4992093;28;19924;-77
2023/07/20 06:48:19;;;;;;;7.22;1.30;;;17.80;99.90;;;16.39;84.60;100708.25;4981514;28;20101;-77
2023/07/20 06:50:45;;;;;;;2.63;1.10;;;17.60;99.90;;;16.48;84.85;100717.38;4983001;28;20113;-77
2023/07/20 06:53:11;;;;;;;3.22;0.98;;;17.40;99.90;;;16.36;85.31;100709.31;4981481;28;20231;-78
2023/07/20 06:55:39;;;;;;;2.13;0.60;;;17.40;99.90;;;16.55;85.08;100708.84;4971320;28;20060;-77
2023/07/20 06:58:05;;;;;;;2.72;0.63;;;17.50;99.90;;;17.37;82.01;100722.38;4973660;28;20088;-78
2023/07/20 07:00:30;;;;;;;2.90;0.73;;;18.40;99.90;;;20.06;75.56;100735.47;5004241;28;20505;-78
2023/07/20 07:02:56;;;;;;;;;;;18.60;99.90;;;23.51;68.16;100752.44;4977552;28;20045;-77
2023/07/20 07:05:22;;;;;;;2.30;0.50;;;22.80;99.90;;;26.11;57.95;100768.03;4992923;28;19924;-78
2023/07/20 07:07:48;;;;;;;1.48;0.70;;;25.20;99.90;;;28.02;52.95;100778.44;4983179;28;20038;-78
2023/07/20 07:10:14;;;;;;;1.30;0.68;;;27.20;99.90;;;29.84;49.24;100801.09;4959388;28;20065;-78
2023/07/20 07:12:40;;;;;;;0.88;0.50;;;29.00;99.90;;;31.23;46.79;100812.97;4969646;28;20696;-78
2023/07/20 07:15:11;;;;;;;3.08;0.95;;;30.40;99.90;;;32.23;44.84;100827.53;4974520;28;20037;-78
2023/07/20 07:17:36;;;;;;;3.15;0.90;;;31.60;98.50;;;33.05;42.62;100844.28;4997259;28;20037;-78
2023/07/20 07:20:03;;;;;;;2.80;0.70;;;32.40;95.40;;;33.28;42.50;100853.84;4982653;28;20076;-78
2023/07/20 07:22:30;;;;;;;3.00;0.63;;;32.90;93.60;;;33.15;41.44;100856.66;4973784;28;20041;-78
2023/07/20 07:24:58;;;;;;;1.02;0.70;;;32.50;92.10;;;31.35;42.56;100843.13;4973485;28;20041;-78
2023/07/20 07:27:27;;;;;;;1.27;0.70;;;31.50;92.50;;;30.11;44.14;100836.63;4986012;28;20049;-78
2023/07/20 07:29:53;;;;;;;4.55;0.70;;;30.40;92.80;;;28.99;45.55;100831.69;4984318;28;20230;-79
2023/07/20 07:32:18;;;;;;;3.00;0.70;;;29.70;94.70;;;29.37;45.72;100839.66;4991588;28;20116;-78
2023/07/20 07:34:46;;;;;;;1.33;0.73;;;29.70;95.50;;;29.65;45.57;100831.59;4967885;28;20116;-78
2023/07/20 07:37:12;;;;;;;3.55;0.60;;;29.60;94.40;;;29.09;45.93;100837.66;4970665;28;20040;-77
2023/07/20 07:39:38;;;;;;;1.90;0.60;;;29.30;95.10;;;28.48;46.72;100834.31;4968966;28;20030;-78
2023/07/20 07:42:05;;;;;;;2.85;0.80;;;28.90;95.10;;;27.99;47.27;100828.38;4982538;28;20095;-78
2023/07/20 07:44:31;;;;;;;4.78;0.65;;;28.30;95.80;;;27.41;47.64;100829.81;4955589;28;20039;-79
2023/07/20 07:46:57;;;;;;;3.85;0.63;;;27.80;95.90;;;27.24;48.54;100839.06;4999202;28;20056;-77
2023/07/20 07:49:23;;;;;;;2.40;0.90;;;27.50;96.80;;;27.49;47.90;100837.84;4970996;28;20033;-78
2023/07/20 07:51:49;;;;;;;1.20;0.40;;;27.50;97.30;;;27.06;49.33;100832.00;4990580;28;20539;-77
2023/07/20 07:54:15;;;;;;;0.70;0.40;;;27.50;96.50;;;27.20;47.99;100833.13;4997293;28;20034;-78
2023/07/20 07:56:40;;;;;;;0.98;0.43;;;27.70;98.00;;;28.26;47.93;100841.50;4988231;28;20096;-77
2023/07/20 07:59:09;;;;;;;1.25;0.55;;;28.30;96.80;;;28.78;46.32;100854.97;4975046;28;20033;-78
2023/07/20 08:01:36;;;;;;;1.23;0.47;;;29.00;96.60;;;29.62;45.41;100854.50;4968447;28;20034;-78
2023/07/20 08:04:03;;;;;;;1.00;0.50;;;29.00;96.50;;;30.27;44.25;100868.06;5008168;28;20585;-78
2023/07/20 08:06:29;;;;;;;2.42;0.70;;;30.10;93.90;;;30.58;42.88;100878.53;4972307;28;20034;-79
2023/07/20 08:08:55;;;;;;;1.42;0.55;;;30.10;94.20;;;29.81;44.72;100860.38;4965490;28;20705;-78
2023/07/20 08:11:21;;;;;;;2.53;0.60;;;29.90;94.30;;;29.40;45.26;100856.38;4971814;28;20421;-77
2023/07/20 08:13:47;;;;;;;2.33;0.60;;;29.50;94.50;;;28.59;46.18;100842.00;4995673;28;20048;-79
2023/07/20 08:16:15;;;;;;;1.85;0.52;;;29.20;95.10;;;28.94;46.50;100851.22;4980100;28;20056;-79
2023/07/20 08:18:40;;;;;;;5.28;0.98;;;29.20;93.50;;;29.30;44.30;100855.00;4958776;28;20034;-78
2023/07/20 08:21:06;;;;;;;4.38;0.50;;;29.40;94.20;;;29.67;44.23;100862.06;4987085;28;20034;-78
2023/07/20 08:23:32;;;;;;;3.05;0.70;;;28.70;93.40;;;27.30;47.37;100838.31;5002187;28;20042;-77
2023/07/20 08:25:58;;;;;;;3.95;0.55;;;27.30;93.30;;;24.83;50.55;100816.03;4977468;28;20041;-78
2023/07/20 08:28:26;;;;;;;4.13;0.70;;;25.90;94.80;;;23.52;53.28;100807.03;5012231;28;20128;-77
2023/07/20 08:30:54;;;;;;;1.40;0.50;;;25.00;97.90;;;23.87;54.15;100806.19;4984353;28;20048;-78
2023/07/20 08:33:20;;;;;;;2.00;0.50;;;24.60;98.70;;;23.80;53.88;100798.91;4982843;28;20524;-78
2023/07/20 08:35:46;;;;;;;4.10;0.60;;;24.40;98.70;;;24.05;53.18;100814.22;4997508;28;20036;-78
2023/07/20 08:38:13;;;;;;;3.17;0.60;;;24.50;99.50;;;24.51;52.93;100811.34;4968557;28;20037;-79
2023/07/20 08:40:44;;;;;;;2.28;0.43;;;24.70;97.60;;;24.55;50.95;100810.00;5004795;28;20040;-78
2023/07/20 08:43:16;;;;;;;1.80;0.90;;;24.80;99.20;;;24.70;52.02;100800.31;4983668;28;20030;-78
2023/07/20 08:45:44;;;;;;;3.97;0.90;;;24.90;99.70;;;24.65;52.78;100793.75;4978415;28;20056;-78
2023/07/20 08:48:15;;;;;;;1.25;0.50;;;24.90;98.50;;;24.27;52.68;100799.41;4959905;28;20049;-79
2023/07/20 08:50:42;;;;;;;4.45;1.00;;;24.60;97.90;;;23.71;53.04;100787.19;4971860;28;20485;-78
2023/07/20 08:53:10;;;;;;;3.17;0.70;;;24.20;97.60;;;23.31;52.80;100788.53;5005056;28;20719;-78
2023/07/20 08:55:36;;;;;;;3.72;0.40;;;23.90;98.30;;;23.02;53.70;100776.13;4985588;28;20120;-78
2023/07/20 08:58:08;;;;;;;1.08;0.35;;;23.60;99.20;;;22.69;55.05;100772.22;4978137;28;20533;-78
2023/07/20 09:00:36;;;;;;;2.85;0.60;;;23.30;99.90;;;22.77;56.29;100775.00;4983712;28;20438;-79
2023/07/20 09:03:03;;;;;;;0.95;0.35;;;23.60;99.90;;;23.21;56.67;100785.91;4991272;28;20036;-78
2023/07/20 09:05:32;;;;;;;3.20;0.50;;;23.90;99.90;;;23.68;55.94;100782.16;4963406;28;20462;-79
2023/07/20 09:08:00;;;;;;;2.63;0.38;;;24.10;99.90;;;23.76;55.37;100779.56;4974036;28;20041;-79
2023/07/20 09:10:27;;;;;;;1.95;0.60;;;24.20;99.80;;;23.88;53.59;100785.53;4993616;28;20114;-78
2023/07/20 09:12:53;;;;;;;2.53;0.52;;;24.10;97.60;;;23.01;53.68;100782.50;4994609;28;20485;-78
2023/07/20 09:15:20;;;;;;;2.10;0.50;;;23.90;99.90;;;23.09;55.83;100779.94;4979336;28;20045;-78
2023/07/20 09:17:51;;;;;;;2.25;0.40;;;23.70;98.70;;;22.68;54.26;100776.75;4980639;28;20072;-78
2023/07/20 09:20:18;;;;;;;1.02;0.40;;;23.30;98.20;;;21.89;55.29;100775.28;5001119;28;20033;-78
2023/07/20 09:22:45;;;;;;;4.53;0.60;;;22.80;98.70;;;21.36;56.30;100770.34;4975788;28;20038;-78
2023/07/20 09:25:16;;;;;;;3.65;0.60;;;22.40;99.90;;;21.02;57.62;100772.56;4981632;28;20033;-77
2023/07/20 09:27:45;;;;;;;3.78;0.90;;;22.10;99.90;;;20.94;58.53;100772.41;5015430;28;20524;-77
2023/07/20 09:30:16;;;;;;;3.55;0.50;;;21.90;99.90;;;20.94;58.26;100770.56;4978750;28;20050;-77
2023/07/20 09:32:43;;;;;;;2.00;0.52;;;21.70;99.90;;;20.69;58.21;100772.78;4993880;28;20104;-78
2023/07/20 09:35:15;;;;;;;1.42;0.60;;;21.50;99.90;;;20.32;57.84;100767.06;5002906;28;20042;-78
2023/07/20 09:38:02;;;;;;;6.75;0.60;;;21.30;99.90;;;20.38;59.80;100765.72;4982390;28;20548;-77
2023/07/20 09:40:28;;;;;;;2.63;0.70;;;21.40;99.90;;;20.74;60.23;100761.66;4992112;28;20057;-78
2023/07/20 09:42:59;;;;;;;3.58;0.60;;;21.60;99.90;;;21.03;58.84;100768.91;5008777;28;20048;-78
2023/07/20 09:45:50;;;;;;;7.05;0.98;;;21.80;99.90;;;21.50;59.05;100771.78;5002484;28;20053;-77
2023/07/20 09:48:16;;;;;;;2.63;0.57;;;22.10;99.90;;;21.76;58.38;100773.88;5005596;28;20041;-78
2023/07/20 09:50:51;;;;;;;5.88;1.10;;;22.50;99.90;;;22.20;57.50;100776.88;4989191;28;20104;-78
2023/07/20 09:53:18;;;;;;;8.57;0.80;;;22.90;99.90;;;22.54;55.00;100779.91;4998554;28;20041;-77
2023/07/20 09:55:48;;;;;;;3.92;0.85;;;23.10;99.20;;;22.53;53.82;100786.28;4998087;28;20060;-78
2023/07/20 09:58:17;;;;;;;2.15;0.57;;;23.20;99.90;;;22.37;53.84;100780.69;4995655;28;20033;-77
2023/07/20 10:00:50;;;;;;;6.68;0.60;;;23.00;98.50;;;22.08;54.10;100790.47;4984407;28;20060;-77
2023/07/20 10:03:21;;;;;;;3.30;0.65;;;22.70;98.40;;;21.67;54.69;100781.78;4986122;28;20399;-78
2023/07/20 10:06:10;;;;;;;5.63;0.55;;;22.50;98.80;;;21.53;54.70;100781.38;5016760;28;20408;-78
2023/07/20 10:08:42;;;;;;;5.15;0.60;;;22.20;99.80;;;21.40;55.50;100774.41;4999126;28;20048;-77
2023/07/20 10:11:15;;;;;;;0.95;0.40;;;22.20;99.90;;;21.63;56.33;100783.06;4989328;28;20072;-77
2023/07/20 10:13:47;;;;;;;4.05;0.70;;;22.50;99.90;;;22.14;55.64;100775.66;5001450;28;20599;-76
2023/07/20 10:16:26;;;;;;;1.83;0.40;;;22.80;99.70;;;22.52;52.39;100782.72;4991378;28;20121;-77